Terminal Aerodrome Forecast
Issued by NWS Boston, MA

Home | Current Version | Previous Version | Text Only | Print | Product List | Glossary On
Versions: 1 2 3 4 5 6 7 8 9 10 11 12 13 14 15 16 17 18 19 20 21 22 23 24 25 26 27 28 29 30 31 32 33 34 35 36 37 38 39 40 41 42 43 44 45 46 47 48 49 50
000
FTUS41 KBOX 242039 AAA
TAFBDL
TAF AMD
KBDL 242039Z 2421/2524 21012G20KT P6SM OVC035
     FM250400 21005KT P6SM BKN050
     FM251000 VRB03KT P6SM BKN040
     FM251800 02004KT 6SM -RA OVC025
     FM252200 02005KT P6SM VCSH OVC040=

USA.gov is the U.S. government's official web portal to all federal, state and local government web resources and services.